sensor_id;sensor_type;location;lat;lon;timestamp;pressure;altitude;pressure_sealevel;temperature;humidity
71764;BME280;59602;52.142;5.408;2023-05-22T00:00:04;101682.22;;;16.99;87.86
71764;BME280;59602;52.142;5.408;2023-05-22T00:02:34;101676.34;;;16.97;88.08
71764;BME280;59602;52.142;5.408;2023-05-22T00:05:10;101678.31;;;16.97;88.42
71764;BME280;59602;52.142;5.408;2023-05-22T00:07:38;101681.41;;;16.99;88.33
71764;BME280;59602;52.142;5.408;2023-05-22T00:10:06;101683.38;;;16.98;88.52
71764;BME280;59602;52.142;5.408;2023-05-22T00:12:32;101675.91;;;16.99;88.60
71764;BME280;59602;52.142;5.408;2023-05-22T00:14:59;101668.47;;;16.96;88.49
71764;BME280;59602;52.142;5.408;2023-05-22T00:17:26;101662.22;;;16.92;88.79
71764;BME280;59602;52.142;5.408;2023-05-22T00:19:53;101672.03;;;16.93;89.19
71764;BME280;59602;52.142;5.408;2023-05-22T00:22:20;101661.06;;;16.93;89.29
71764;BME280;59602;52.142;5.408;2023-05-22T00:24:47;101664.19;;;16.95;89.34
71764;BME280;59602;52.142;5.408;2023-05-22T00:27:13;101655.94;;;16.95;89.36
71764;BME280;59602;52.142;5.408;2023-05-22T00:29:40;101650.06;;;16.93;89.24
71764;BME280;59602;52.142;5.408;2023-05-22T00:32:06;101652.44;;;16.91;89.07
71764;BME280;59602;52.142;5.408;2023-05-22T00:34:33;101653.97;;;16.92;89.17
71764;BME280;59602;52.142;5.408;2023-05-22T00:36:59;101658.31;;;16.93;88.98
71764;BME280;59602;52.142;5.408;2023-05-22T00:39:26;101657.53;;;16.92;89.22
71764;BME280;59602;52.142;5.408;2023-05-22T00:41:52;101650.84;;;16.90;89.26
71764;BME280;59602;52.142;5.408;2023-05-22T00:44:19;101653.66;;;16.86;89.48
71764;BME280;59602;52.142;5.408;2023-05-22T00:46:46;101643.88;;;16.82;89.27
71764;BME280;59602;52.142;5.408;2023-05-22T00:49:12;101646.22;;;16.76;90.01
71764;BME280;59602;52.142;5.408;2023-05-22T00:51:39;101640.34;;;16.77;89.96
71764;BME280;59602;52.142;5.408;2023-05-22T00:54:05;101638.75;;;16.76;90.18
71764;BME280;59602;52.142;5.408;2023-05-22T00:56:32;101634.84;;;16.74;89.77
71764;BME280;59602;52.142;5.408;2023-05-22T00:58:59;101632.53;;;16.72;90.09
71764;BME280;59602;52.142;5.408;2023-05-22T01:01:26;101634.84;;;16.74;90.13
71764;BME280;59602;52.142;5.408;2023-05-22T01:03:59;101633.25;;;16.76;90.47
71764;BME280;59602;52.142;5.408;2023-05-22T01:06:27;101627.38;;;16.78;90.57
71764;BME280;59602;52.142;5.408;2023-05-22T01:08:57;101625.03;;;16.76;90.41
71764;BME280;59602;52.142;5.408;2023-05-22T01:11:32;101617.97;;;16.79;90.65
71764;BME280;59602;52.142;5.408;2023-05-22T01:14:12;101614.81;;;16.80;90.39
71764;BME280;59602;52.142;5.408;2023-05-22T01:16:51;101612.47;;;16.83;90.44
71764;BME280;59602;52.142;5.408;2023-05-22T01:22:33;101615.19;;;16.83;90.51
71764;BME280;59602;52.142;5.408;2023-05-22T01:25:11;101605.03;;;16.79;90.58
71764;BME280;59602;52.142;5.408;2023-05-22T01:27:54;101605.81;;;16.80;90.55
71764;BME280;59602;52.142;5.408;2023-05-22T01:30:51;101609.72;;;16.79;90.46
71764;BME280;59602;52.142;5.408;2023-05-22T01:33:25;101607.38;;;16.77;90.77
71764;BME280;59602;52.142;5.408;2023-05-22T01:35:56;101600.31;;;16.76;90.82
71764;BME280;59602;52.142;5.408;2023-05-22T01:38:25;101601.50;;;16.75;91.03
71764;BME280;59602;52.142;5.408;2023-05-22T01:40:52;101602.28;;;16.79;90.70
71764;BME280;59602;52.142;5.408;2023-05-22T01:43:19;101605.03;;;16.79;90.44
71764;BME280;59602;52.142;5.408;2023-05-22T01:45:46;101597.94;;;16.78;91.02
71764;BME280;59602;52.142;5.408;2023-05-22T01:48:13;101595.19;;;16.78;90.77
71764;BME280;59602;52.142;5.408;2023-05-22T01:50:39;101592.88;;;16.77;90.87
71764;BME280;59602;52.142;5.408;2023-05-22T01:53:15;101596.78;;;16.76;90.34
71764;BME280;59602;52.142;5.408;2023-05-22T02:00:51;101581.53;;;16.68;90.08
71764;BME280;59602;52.142;5.408;2023-05-22T02:03:26;101574.50;;;16.67;90.30
71764;BME280;59602;52.142;5.408;2023-05-22T02:05:58;101572.50;;;16.67;90.77
71764;BME280;59602;52.142;5.408;2023-05-22T02:08:27;101577.63;;;16.65;90.77
71764;BME280;59602;52.142;5.408;2023-05-22T02:10:55;101576.47;;;16.63;91.04
71764;BME280;59602;52.142;5.408;2023-05-22T02:13:22;101574.16;;;16.61;90.76
71764;BME280;59602;52.142;5.408;2023-05-22T02:15:49;101574.94;;;16.62;90.87
71764;BME280;59602;52.142;5.408;2023-05-22T02:18:16;101571.03;;;16.59;91.14
71764;BME280;59602;52.142;5.408;2023-05-22T02:20:45;101566.69;;;16.58;90.93
71764;BME280;59602;52.142;5.408;2023-05-22T02:23:11;101574.94;;;16.58;90.65
71764;BME280;59602;52.142;5.408;2023-05-22T02:25:38;101564.78;;;16.55;91.10
71764;BME280;59602;52.142;5.408;2023-05-22T02:28:05;101568.31;;;16.52;90.95
71764;BME280;59602;52.142;5.408;2023-05-22T02:30:31;101565.19;;;16.50;91.35
71764;BME280;59602;52.142;5.408;2023-05-22T02:32:58;101569.13;;;16.49;91.20
71764;BME280;59602;52.142;5.408;2023-05-22T02:35:25;101563.63;;;16.49;91.18
71764;BME280;59602;52.142;5.408;2023-05-22T02:37:52;101562.06;;;16.48;91.19
71764;BME280;59602;52.142;5.408;2023-05-22T02:40:18;101553.47;;;16.46;91.15
71764;BME280;59602;52.142;5.408;2023-05-22T02:42:45;101559.34;;;16.48;90.86
71764;BME280;59602;52.142;5.408;2023-05-22T02:45:12;101562.47;;;16.46;91.04
71764;BME280;59602;52.142;5.408;2023-05-22T02:47:38;101569.13;;;16.45;91.14
71764;BME280;59602;52.142;5.408;2023-05-22T02:50:06;101562.09;;;16.44;91.11
71764;BME280;59602;52.142;5.408;2023-05-22T02:52:32;101557.00;;;16.43;91.01
71764;BME280;59602;52.142;5.408;2023-05-22T02:55:00;101558.56;;;16.44;90.82
71764;BME280;59602;52.142;5.408;2023-05-22T02:57:26;101554.66;;;16.41;91.22
71764;BME280;59602;52.142;5.408;2023-05-22T02:59:53;101548.81;;;16.39;91.28
71764;BME280;59602;52.142;5.408;2023-05-22T03:02:19;101540.56;;;16.39;91.72
71764;BME280;59602;52.142;5.408;2023-05-22T03:04:46;101546.44;;;16.37;91.57
71764;BME280;59602;52.142;5.408;2023-05-22T03:07:13;101544.53;;;16.34;91.66
71764;BME280;59602;52.142;5.408;2023-05-22T03:09:39;101542.16;;;16.33;91.84
71764;BME280;59602;52.142;5.408;2023-05-22T03:12:07;101541.78;;;16.31;92.23
71764;BME280;59602;52.142;5.408;2023-05-22T03:14:35;101546.88;;;16.29;92.07
71764;BME280;59602;52.142;5.408;2023-05-22T03:17:02;101545.72;;;16.26;91.75
71764;BME280;59602;52.142;5.408;2023-05-22T03:19:30;101544.97;;;16.22;91.94
71764;BME280;59602;52.142;5.408;2023-05-22T03:21:56;101545.78;;;16.19;92.36
71764;BME280;59602;52.142;5.408;2023-05-22T03:24:23;101543.03;;;16.19;92.47
71764;BME280;59602;52.142;5.408;2023-05-22T03:26:51;101549.72;;;16.14;92.53
71764;BME280;59602;52.142;5.408;2023-05-22T03:29:17;101545.00;;;16.15;92.41
71764;BME280;59602;52.142;5.408;2023-05-22T03:31:45;101545.41;;;16.13;92.18
71764;BME280;59602;52.142;5.408;2023-05-22T03:34:11;101551.28;;;16.15;92.45
71764;BME280;59602;52.142;5.408;2023-05-22T03:36:38;101548.94;;;16.14;92.18
71764;BME280;59602;52.142;5.408;2023-05-22T03:39:05;101550.13;;;16.09;92.00
71764;BME280;59602;52.142;5.408;2023-05-22T03:41:31;101541.53;;;16.04;92.05
71764;BME280;59602;52.142;5.408;2023-05-22T03:43:58;101550.16;;;16.02;92.13
71764;BME280;59602;52.142;5.408;2023-05-22T03:46:24;101554.88;;;16.02;92.02
71764;BME280;59602;52.142;5.408;2023-05-22T03:48:52;101552.91;;;16.06;91.77
71764;BME280;59602;52.142;5.408;2023-05-22T03:51:18;101554.47;;;16.07;92.01
71764;BME280;59602;52.142;5.408;2023-05-22T03:53:45;101554.84;;;16.09;92.13
71764;BME280;59602;52.142;5.408;2023-05-22T03:56:12;101547.78;;;16.11;91.71
71764;BME280;59602;52.142;5.408;2023-05-22T03:58:39;101549.34;;;16.05;91.18
71764;BME280;59602;52.142;5.408;2023-05-22T04:01:05;101548.63;;;16.01;91.67
71764;BME280;59602;52.142;5.408;2023-05-22T04:03:36;101541.56;;;16.00;92.07
71764;BME280;59602;52.142;5.408;2023-05-22T04:06:03;101545.50;;;15.99;92.35
71764;BME280;59602;52.142;5.408;2023-05-22T04:08:30;101543.91;;;16.02;92.27
71764;BME280;59602;52.142;5.408;2023-05-22T04:10:56;101545.84;;;16.05;92.31
71764;BME280;59602;52.142;5.408;2023-05-22T04:13:23;101545.44;;;16.06;91.86
71764;BME280;59602;52.142;5.408;2023-05-22T04:15:49;101543.88;;;16.05;91.88
71764;BME280;59602;52.142;5.408;2023-05-22T04:18:18;101546.28;;;16.00;91.73
71764;BME280;59602;52.142;5.408;2023-05-22T04:20:44;101543.53;;;15.96;92.26
71764;BME280;59602;52.142;5.408;2023-05-22T04:23:11;101551.38;;;15.97;92.53
71764;BME280;59602;52.142;5.408;2023-05-22T04:25:38;101562.72;;;16.00;92.28
71764;BME280;59602;52.142;5.408;2023-05-22T04:28:05;101565.06;;;16.01;92.13
71764;BME280;59602;52.142;5.408;2023-05-22T04:30:31;101583.47;;;16.04;92.29
71764;BME280;59602;52.142;5.408;2023-05-22T04:32:59;101592.09;;;16.03;92.41
71764;BME280;59602;52.142;5.408;2023-05-22T04:35:27;101581.94;;;16.00;91.98
71764;BME280;59602;52.142;5.408;2023-05-22T04:37:55;101585.44;;;16.00;92.36
71764;BME280;59602;52.142;5.408;2023-05-22T04:40:22;101592.13;;;15.99;92.67
71764;BME280;59602;52.142;5.408;2023-05-22T04:42:49;101589.34;;;16.03;92.46
71764;BME280;59602;52.142;5.408;2023-05-22T04:45:15;101593.28;;;16.02;92.50
71764;BME280;59602;52.142;5.408;2023-05-22T04:47:44;101607.38;;;16.04;92.66
71764;BME280;59602;52.142;5.408;2023-05-22T04:50:12;101605.03;;;16.06;91.77
71764;BME280;59602;52.142;5.408;2023-05-22T04:52:40;101613.25;;;16.02;91.97
71764;BME280;59602;52.142;5.408;2023-05-22T04:55:06;101611.72;;;16.01;92.04
71764;BME280;59602;52.142;5.408;2023-05-22T04:57:33;101609.34;;;16.03;92.22
71764;BME280;59602;52.142;5.408;2023-05-22T05:00:00;101615.63;;;16.04;91.66
71764;BME280;59602;52.142;5.408;2023-05-22T05:02:27;101619.13;;;16.08;91.77
71764;BME280;59602;52.142;5.408;2023-05-22T05:04:54;101615.97;;;16.09;91.84
71764;BME280;59602;52.142;5.408;2023-05-22T05:07:21;101612.84;;;16.11;91.91
71764;BME280;59602;52.142;5.408;2023-05-22T05:09:48;101615.97;;;16.13;91.85
71764;BME280;59602;52.142;5.408;2023-05-22T05:12:15;101614.00;;;16.13;91.55
71764;BME280;59602;52.142;5.408;2023-05-22T05:14:42;101615.56;;;16.14;91.77
71764;BME280;59602;52.142;5.408;2023-05-22T05:17:08;101618.72;;;16.16;91.94
71764;BME280;59602;52.142;5.408;2023-05-22T05:19:35;101598.31;;;16.17;91.94
71764;BME280;59602;52.142;5.408;2023-05-22T05:22:02;101610.44;;;16.24;92.12
71764;BME280;59602;52.142;5.408;2023-05-22T05:24:29;101611.59;;;16.26;91.83
71764;BME280;59602;52.142;5.408;2023-05-22T05:26:56;101605.28;;;16.29;91.64
71764;BME280;59602;52.142;5.408;2023-05-22T05:29:22;101599.03;;;16.29;91.67
71764;BME280;59602;52.142;5.408;2023-05-22T05:31:49;101594.69;;;16.31;92.28
71764;BME280;59602;52.142;5.408;2023-05-22T05:34:16;101605.25;;;16.40;92.08
71764;BME280;59602;52.142;5.408;2023-05-22T05:36:42;101602.88;;;16.46;92.06
71764;BME280;59602;52.142;5.408;2023-05-22T05:39:09;101593.00;;;16.52;91.85
71764;BME280;59602;52.142;5.408;2023-05-22T05:41:54;101595.34;;;16.57;91.91
71764;BME280;59602;52.142;5.408;2023-05-22T05:44:39;101599.22;;;16.63;91.47
71764;BME280;59602;52.142;5.408;2023-05-22T05:53:37;101597.13;;;16.89;91.61
71764;BME280;59602;52.142;5.408;2023-05-22T05:56:07;101599.41;;;16.94;91.45
71764;BME280;59602;52.142;5.408;2023-05-22T05:58:34;101597.41;;;17.01;91.48
71764;BME280;59602;52.142;5.408;2023-05-22T06:01:01;101594.19;;;17.10;91.46
71764;BME280;59602;52.142;5.408;2023-05-22T06:03:28;101598.78;;;17.24;91.37
71764;BME280;59602;52.142;5.408;2023-05-22T06:05:56;101601.00;;;17.36;91.23
71764;BME280;59602;52.142;5.408;2023-05-22T06:08:22;101601.75;;;17.40;90.74
71764;BME280;59602;52.142;5.408;2023-05-22T06:10:49;101602.91;;;17.43;90.75
71764;BME280;59602;52.142;5.408;2023-05-22T06:13:16;101591.13;;;17.46;90.47
71764;BME280;59602;52.142;5.408;2023-05-22T06:15:42;101593.00;;;17.53;90.37
71764;BME280;59602;52.142;5.408;2023-05-22T06:18:09;101598.00;;;17.61;90.20
71764;BME280;59602;52.142;5.408;2023-05-22T06:20:36;101597.50;;;17.74;90.49
71764;BME280;59602;52.142;5.408;2023-05-22T06:23:05;101605.66;;;17.84;90.36
71764;BME280;59602;52.142;5.408;2023-05-22T06:25:31;101600.44;;;17.94;90.58
71764;BME280;59602;52.142;5.408;2023-05-22T06:27:58;101597.97;;;18.03;90.45
71764;BME280;59602;52.142;5.408;2023-05-22T06:30:27;101617.06;;;18.17;90.30
71764;BME280;59602;52.142;5.408;2023-05-22T06:33:05;101617.72;;;18.25;89.03
71764;BME280;59602;52.142;5.408;2023-05-22T06:35:33;101612.13;;;18.32;89.02
71764;BME280;59602;52.142;5.408;2023-05-22T06:38:00;101617.53;;;18.39;88.79
71764;BME280;59602;52.142;5.408;2023-05-22T06:40:27;101619.38;;;18.50;89.77
71764;BME280;59602;52.142;5.408;2023-05-22T06:42:54;101612.50;;;18.61;88.83
71764;BME280;59602;52.142;5.408;2023-05-22T06:45:20;101626.59;;;18.67;87.77
71764;BME280;59602;52.142;5.408;2023-05-22T06:48:15;101625.28;;;18.75;88.01
71764;BME280;59602;52.142;5.408;2023-05-22T06:51:02;101616.09;;;18.85;87.83
71764;BME280;59602;52.142;5.408;2023-05-22T06:53:29;101624.22;;;18.96;87.30
71764;BME280;59602;52.142;5.408;2023-05-22T06:55:56;101620.50;;;19.06;87.62
71764;BME280;59602;52.142;5.408;2023-05-22T06:58:24;101624.69;;;19.15;86.81
71764;BME280;59602;52.142;5.408;2023-05-22T07:00:51;101620.63;;;19.23;87.36
71764;BME280;59602;52.142;5.408;2023-05-22T07:03:19;101625.09;;;19.37;86.14
71764;BME280;59602;52.142;5.408;2023-05-22T07:05:46;101627.38;;;19.42;85.43
71764;BME280;59602;52.142;5.408;2023-05-22T07:08:13;101632.34;;;19.50;85.80
71764;BME280;59602;52.142;5.408;2023-05-22T07:10:41;101631.03;;;19.59;86.06
71764;BME280;59602;52.142;5.408;2023-05-22T07:13:07;101637.25;;;19.63;84.84
71764;BME280;59602;52.142;5.408;2023-05-22T07:15:34;101637.91;;;19.70;85.06
71764;BME280;59602;52.142;5.408;2023-05-22T07:18:01;101639.75;;;19.77;84.57
71764;BME280;59602;52.142;5.408;2023-05-22T07:20:28;101638.06;;;19.83;85.22
71764;BME280;59602;52.142;5.408;2023-05-22T07:22:55;101632.91;;;19.85;85.34
71764;BME280;59602;52.142;5.408;2023-05-22T07:25:23;101635.88;;;19.95;84.66
71764;BME280;59602;52.142;5.408;2023-05-22T07:27:50;101639.78;;;19.97;83.84
71764;BME280;59602;52.142;5.408;2023-05-22T07:30:16;101636.84;;;20.04;83.61
71764;BME280;59602;52.142;5.408;2023-05-22T07:32:43;101643.25;;;20.01;80.62
71764;BME280;59602;52.142;5.408;2023-05-22T07:35:10;101643.94;;;19.85;81.80
71764;BME280;59602;52.142;5.408;2023-05-22T07:37:36;101639.16;;;19.66;81.70
71764;BME280;59602;52.142;5.408;2023-05-22T07:40:04;101642.34;;;19.64;82.25
71764;BME280;59602;52.142;5.408;2023-05-22T07:42:32;101643.19;;;19.61;81.14
71764;BME280;59602;52.142;5.408;2023-05-22T07:45:00;101634.13;;;19.61;81.91
71764;BME280;59602;52.142;5.408;2023-05-22T07:47:27;101631.78;;;19.59;82.79
71764;BME280;59602;52.142;5.408;2023-05-22T07:49:53;101636.44;;;19.62;85.36
71764;BME280;59602;52.142;5.408;2023-05-22T07:52:20;101636.81;;;19.64;84.17
71764;BME280;59602;52.142;5.408;2023-05-22T07:54:48;101639.16;;;19.66;84.34
71764;BME280;59602;52.142;5.408;2023-05-22T07:57:14;101641.16;;;19.65;84.83
71764;BME280;59602;52.142;5.408;2023-05-22T07:59:41;101646.31;;;19.63;82.84
71764;BME280;59602;52.142;5.408;2023-05-22T08:02:09;101643.53;;;19.63;83.41
71764;BME280;59602;52.142;5.408;2023-05-22T08:04:35;101649.41;;;19.65;84.55
71764;BME280;59602;52.142;5.408;2023-05-22T08:07:03;101644.66;;;19.69;84.82
71764;BME280;59602;52.142;5.408;2023-05-22T08:09:31;101646.59;;;19.69;83.73
71764;BME280;59602;52.142;5.408;2023-05-22T08:11:58;101652.94;;;19.69;84.57
71764;BME280;59602;52.142;5.408;2023-05-22T08:14:25;101658.81;;;19.72;83.92
71764;BME280;59602;52.142;5.408;2023-05-22T08:16:51;101655.97;;;19.75;84.44
71764;BME280;59602;52.142;5.408;2023-05-22T08:19:18;101655.91;;;19.79;85.84
71764;BME280;59602;52.142;5.408;2023-05-22T08:21:45;101653.16;;;19.79;83.99
71764;BME280;59602;52.142;5.408;2023-05-22T08:24:11;101658.59;;;19.82;84.80
71764;BME280;59602;52.142;5.408;2023-05-22T08:26:39;101657.31;;;19.87;83.50
71764;BME280;59602;52.142;5.408;2023-05-22T08:29:06;101655.41;;;19.84;82.55
71764;BME280;59602;52.142;5.408;2023-05-22T08:31:33;101650.59;;;19.88;84.19
71764;BME280;59602;52.142;5.408;2023-05-22T08:34:01;101658.47;;;19.89;83.40
71764;BME280;59602;52.142;5.408;2023-05-22T08:36:29;101650.09;;;19.93;83.27
71764;BME280;59602;52.142;5.408;2023-05-22T08:38:57;101650.81;;;19.97;83.05
71764;BME280;59602;52.142;5.408;2023-05-22T08:41:23;101646.88;;;19.98;83.52
71764;BME280;59602;52.142;5.408;2023-05-22T08:43:50;101644.88;;;19.99;82.20
71764;BME280;59602;52.142;5.408;2023-05-22T08:46:17;101653.06;;;20.02;82.09
71764;BME280;59602;52.142;5.408;2023-05-22T08:48:45;101645.94;;;20.05;82.32
71764;BME280;59602;52.142;5.408;2023-05-22T08:51:16;101647.06;;;20.07;81.67
71764;BME280;59602;52.142;5.408;2023-05-22T08:53:44;101637.50;;;20.12;82.64
71764;BME280;59602;52.142;5.408;2023-05-22T08:56:11;101647.63;;;20.19;84.20
71764;BME280;59602;52.142;5.408;2023-05-22T08:58:38;101643.22;;;20.21;82.62
71764;BME280;59602;52.142;5.408;2023-05-22T09:01:06;101650.22;;;20.26;82.68
71764;BME280;59602;52.142;5.408;2023-05-22T09:03:35;101644.97;;;20.31;80.12
71764;BME280;59602;52.142;5.408;2023-05-22T09:06:02;101640.16;;;20.36;79.03
71764;BME280;59602;52.142;5.408;2023-05-22T09:08:28;101640.44;;;20.41;79.36
71764;BME280;59602;52.142;5.408;2023-05-22T09:10:55;101639.56;;;20.44;78.48
71764;BME280;59602;52.142;5.408;2023-05-22T09:15:51;101644.50;;;20.53;79.33
71764;BME280;59602;52.142;5.408;2023-05-22T09:18:18;101639.41;;;20.51;78.38
71764;BME280;59602;52.142;5.408;2023-05-22T09:20:45;101640.97;;;20.52;78.57
71764;BME280;59602;52.142;5.408;2023-05-22T09:23:13;101636.97;;;20.57;79.81
71764;BME280;59602;52.142;5.408;2023-05-22T09:25:43;101627.72;;;20.64;78.91
71764;BME280;59602;52.142;5.408;2023-05-22T09:28:10;101630.84;;;20.66;76.60
71764;BME280;59602;52.142;5.408;2023-05-22T09:30:38;101632.72;;;20.69;77.13
71764;BME280;59602;52.142;5.408;2023-05-22T09:33:05;101634.19;;;20.73;77.82
71764;BME280;59602;52.142;5.408;2023-05-22T09:35:35;101630.94;;;20.79;76.13
71764;BME280;59602;52.142;5.408;2023-05-22T09:38:04;101622.66;;;20.79;75.53
71764;BME280;59602;52.142;5.408;2023-05-22T09:40:32;101631.78;;;20.76;74.18
71764;BME280;59602;52.142;5.408;2023-05-22T09:43:00;101621.09;;;20.78;75.46
71764;BME280;59602;52.142;5.408;2023-05-22T09:45:27;101617.44;;;20.81;77.28
71764;BME280;59602;52.142;5.408;2023-05-22T09:47:54;101627.25;;;20.85;76.35
71764;BME280;59602;52.142;5.408;2023-05-22T09:50:20;101622.38;;;20.89;76.71
71764;BME280;59602;52.142;5.408;2023-05-22T09:52:49;101629.38;;;20.94;74.87
71764;BME280;59602;52.142;5.408;2023-05-22T09:55:19;101615.88;;;20.96;73.63
71764;BME280;59602;52.142;5.408;2023-05-22T09:57:47;101615.13;;;20.96;74.32
71764;BME280;59602;52.142;5.408;2023-05-22T10:00:15;101613.13;;;20.96;73.52
71764;BME280;59602;52.142;5.408;2023-05-22T10:02:46;101615.75;;;21.03;75.67
71764;BME280;59602;52.142;5.408;2023-05-22T10:05:14;101618.06;;;21.05;71.66
71764;BME280;59602;52.142;5.408;2023-05-22T10:07:49;101618.06;;;21.05;72.66
71764;BME280;59602;52.142;5.408;2023-05-22T10:10:19;101623.16;;;21.06;71.27
71764;BME280;59602;52.142;5.408;2023-05-22T10:12:50;101620.75;;;21.08;71.16
71764;BME280;59602;52.142;5.408;2023-05-22T10:15:18;101625.03;;;21.09;68.11
71764;BME280;59602;52.142;5.408;2023-05-22T10:17:46;101626.97;;;21.12;69.68
71764;BME280;59602;52.142;5.408;2023-05-22T10:20:14;101621.66;;;21.18;71.23
71764;BME280;59602;52.142;5.408;2023-05-22T10:22:41;101619.59;;;21.22;70.36
71764;BME280;59602;52.142;5.408;2023-05-22T10:25:09;101620.63;;;21.28;68.51
71764;BME280;59602;52.142;5.408;2023-05-22T10:27:37;101617.31;;;21.33;70.03
71764;BME280;59602;52.142;5.408;2023-05-22T10:30:26;101621.56;;;21.38;70.25
71764;BME280;59602;52.142;5.408;2023-05-22T10:33:10;101621.38;;;21.45;69.36
71764;BME280;59602;52.142;5.408;2023-05-22T10:35:42;101618.09;;;21.50;67.80
71764;BME280;59602;52.142;5.408;2023-05-22T10:41:07;101600.28;;;21.51;66.61
71764;BME280;59602;52.142;5.408;2023-05-22T10:43:40;101606.84;;;21.58;69.23
71764;BME280;59602;52.142;5.408;2023-05-22T10:46:10;101602.34;;;21.64;68.49
71764;BME280;59602;52.142;5.408;2023-05-22T10:48:40;101604.00;;;21.74;68.88
71764;BME280;59602;52.142;5.408;2023-05-22T10:51:07;101608.56;;;21.81;67.42
71764;BME280;59602;52.142;5.408;2023-05-22T10:53:34;101610.13;;;21.82;67.03
71764;BME280;59602;52.142;5.408;2023-05-22T10:58:36;101616.38;;;21.98;68.76
71764;BME280;59602;52.142;5.408;2023-05-22T11:01:14;101609.84;;;22.05;67.79
71764;BME280;59602;52.142;5.408;2023-05-22T11:04:00;101612.09;;;22.10;67.17
71764;BME280;59602;52.142;5.408;2023-05-22T11:06:30;101619.50;;;22.13;66.65
71764;BME280;59602;52.142;5.408;2023-05-22T11:08:56;101602.78;;;22.17;66.41
71764;BME280;59602;52.142;5.408;2023-05-22T11:11:24;101609.44;;;22.20;66.57
71764;BME280;59602;52.142;5.408;2023-05-22T11:13:52;101604.47;;;22.27;67.36
71764;BME280;59602;52.142;5.408;2023-05-22T11:16:19;101606.59;;;22.36;66.62
71764;BME280;59602;52.142;5.408;2023-05-22T11:18:46;101600.03;;;22.43;66.46
71764;BME280;59602;52.142;5.408;2023-05-22T11:21:12;101601.50;;;22.47;64.76
71764;BME280;59602;52.142;5.408;2023-05-22T11:23:39;101596.03;;;22.44;65.13
71764;BME280;59602;52.142;5.408;2023-05-22T11:26:19;101586.53;;;22.45;66.20
71764;BME280;59602;52.142;5.408;2023-05-22T11:28:50;101585.53;;;22.51;64.21
71764;BME280;59602;52.142;5.408;2023-05-22T11:31:19;101582.31;;;22.53;64.01
71764;BME280;59602;52.142;5.408;2023-05-22T11:33:52;101585.41;;;22.55;64.70
71764;BME280;59602;52.142;5.408;2023-05-22T11:37:07;101577.31;;;22.61;63.73
71764;BME280;59602;52.142;5.408;2023-05-22T11:39:34;101582.28;;;22.66;65.02
71764;BME280;59602;52.142;5.408;2023-05-22T11:42:01;101580.41;;;22.75;62.18
71764;BME280;59602;52.142;5.408;2023-05-22T11:44:30;101584.94;;;22.82;61.69
71764;BME280;59602;52.142;5.408;2023-05-22T11:47:25;101587.56;;;22.86;60.82
71764;BME280;59602;52.142;5.408;2023-05-22T11:50:02;101581.25;;;22.85;60.80
71764;BME280;59602;52.142;5.408;2023-05-22T11:52:31;101578.38;;;22.89;59.39
71764;BME280;59602;52.142;5.408;2023-05-22T12:01:24;101573.13;;;23.04;60.71
71764;BME280;59602;52.142;5.408;2023-05-22T12:03:51;101569.50;;;23.07;59.42
71764;BME280;59602;52.142;5.408;2023-05-22T12:06:45;101574.00;;;23.13;60.33
71764;BME280;59602;52.142;5.408;2023-05-22T12:09:49;101575.97;;;23.26;62.78
71764;BME280;59602;52.142;5.408;2023-05-22T12:12:16;101573.25;;;23.35;61.44
71764;BME280;59602;52.142;5.408;2023-05-22T12:14:44;101575.91;;;23.38;62.49
71764;BME280;59602;52.142;5.408;2023-05-22T12:17:12;101584.56;;;23.40;60.81
71764;BME280;59602;52.142;5.408;2023-05-22T12:26:57;101575.47;;;23.40;62.08
71764;BME280;59602;52.142;5.408;2023-05-22T12:29:24;101575.00;;;23.41;61.25
71764;BME280;59602;52.142;5.408;2023-05-22T12:31:51;101570.88;;;23.46;62.17
71764;BME280;59602;52.142;5.408;2023-05-22T12:34:18;101576.94;;;23.54;61.40
71764;BME280;59602;52.142;5.408;2023-05-22T12:36:45;101576.94;;;23.54;62.10
71764;BME280;59602;52.142;5.408;2023-05-22T12:39:16;101574.72;;;23.49;60.81
71764;BME280;59602;52.142;5.408;2023-05-22T12:41:44;101571.34;;;23.45;60.24
71764;BME280;59602;52.142;5.408;2023-05-22T12:44:13;101570.09;;;23.46;61.72
71764;BME280;59602;52.142;5.408;2023-05-22T12:46:41;101576.19;;;23.53;61.28
71764;BME280;59602;52.142;5.408;2023-05-22T12:49:07;101566.66;;;23.63;62.35
71764;BME280;59602;52.142;5.408;2023-05-22T12:51:34;101568.72;;;23.72;61.04
71764;BME280;59602;52.142;5.408;2023-05-22T12:54:01;101576.19;;;23.75;61.56
71764;BME280;59602;52.142;5.408;2023-05-22T12:56:29;101579.94;;;23.81;62.04
71764;BME280;59602;52.142;5.408;2023-05-22T12:58:56;101572.19;;;23.76;62.55
71764;BME280;59602;52.142;5.408;2023-05-22T13:01:24;101583.53;;;23.69;62.21
71764;BME280;59602;52.142;5.408;2023-05-22T13:03:52;101582.69;;;23.59;63.41
71764;BME280;59602;52.142;5.408;2023-05-22T13:06:22;101583.06;;;23.49;63.92
71764;BME280;59602;52.142;5.408;2023-05-22T13:08:49;101581.47;;;23.38;64.96
71764;BME280;59602;52.142;5.408;2023-05-22T13:11:16;101593.59;;;23.32;64.83
71764;BME280;59602;52.142;5.408;2023-05-22T13:13:45;101591.84;;;23.25;65.04
71764;BME280;59602;52.142;5.408;2023-05-22T13:16:14;101583.41;;;23.29;66.02
71764;BME280;59602;52.142;5.408;2023-05-22T13:18:41;101588.09;;;23.41;65.08
71764;BME280;59602;52.142;5.408;2023-05-22T13:21:07;101595.53;;;23.44;64.06
71764;BME280;59602;52.142;5.408;2023-05-22T13:23:34;101594.56;;;23.38;65.46
71764;BME280;59602;52.142;5.408;2023-05-22T13:26:01;101596.03;;;23.30;64.75
71764;BME280;59602;52.142;5.408;2023-05-22T13:28:28;101594.16;;;23.27;65.33
71764;BME280;59602;52.142;5.408;2023-05-22T13:30:54;101590.38;;;23.33;63.31
71764;BME280;59602;52.142;5.408;2023-05-22T13:33:21;101596.81;;;23.30;63.43